sensor_id;sensor_type;location;lat;lon;timestamp;P1;durP1;ratioP1;P2;durP2;ratioP2
3050;SDS011;1535;51.098;6.414;2023-06-22T00:00:48;12.97;;;12.47;;
3050;SDS011;1535;51.098;6.414;2023-06-22T00:03:17;13.23;;;12.73;;
3050;SDS011;1535;51.098;6.414;2023-06-22T00:05:44;12.80;;;12.30;;
3050;SDS011;1535;51.098;6.414;2023-06-22T00:08:11;13.73;;;13.10;;
3050;SDS011;1535;51.098;6.414;2023-06-22T00:10:38;12.67;;;12.17;;
3050;SDS011;1535;51.098;6.414;2023-06-22T00:13:07;12.50;;;12.00;;
3050;SDS011;1535;51.098;6.414;2023-06-22T00:15:35;12.53;;;12.03;;
3050;SDS011;1535;51.098;6.414;2023-06-22T00:18:03;16.93;;;13.63;;
3050;SDS011;1535;51.098;6.414;2023-06-22T00:20:31;12.47;;;11.97;;
3050;SDS011;1535;51.098;6.414;2023-06-22T00:23:01;12.97;;;12.47;;
3050;SDS011;1535;51.098;6.414;2023-06-22T00:25:33;13.90;;;13.30;;
3050;SDS011;1535;51.098;6.414;2023-06-22T00:28:00;12.57;;;11.97;;
3050;SDS011;1535;51.098;6.414;2023-06-22T00:30:30;13.40;;;12.80;;
3050;SDS011;1535;51.098;6.414;2023-06-22T00:32:57;14.00;;;13.20;;
3050;SDS011;1535;51.098;6.414;2023-06-22T00:35:24;12.93;;;12.43;;
3050;SDS011;1535;51.098;6.414;2023-06-22T00:37:53;13.87;;;13.10;;
3050;SDS011;1535;51.098;6.414;2023-06-22T00:40:25;12.67;;;12.17;;
3050;SDS011;1535;51.098;6.414;2023-06-22T00:42:53;11.87;;;11.47;;
3050;SDS011;1535;51.098;6.414;2023-06-22T00:45:20;13.20;;;12.60;;
3050;SDS011;1535;51.098;6.414;2023-06-22T00:47:49;12.20;;;11.70;;
3050;SDS011;1535;51.098;6.414;2023-06-22T00:50:17;12.23;;;11.73;;
3050;SDS011;1535;51.098;6.414;2023-06-22T00:52:46;12.30;;;11.80;;
3050;SDS011;1535;51.098;6.414;2023-06-22T00:55:17;12.40;;;11.90;;
3050;SDS011;1535;51.098;6.414;2023-06-22T00:57:45;13.70;;;13.00;;
3050;SDS011;1535;51.098;6.414;2023-06-22T01:00:13;11.97;;;11.57;;
3050;SDS011;1535;51.098;6.414;2023-06-22T01:02:42;13.33;;;12.73;;
3050;SDS011;1535;51.098;6.414;2023-06-22T01:05:13;13.03;;;12.13;;
3050;SDS011;1535;51.098;6.414;2023-06-22T01:07:42;13.17;;;11.97;;
3050;SDS011;1535;51.098;6.414;2023-06-22T01:10:21;14.57;;;13.20;;
3050;SDS011;1535;51.098;6.414;2023-06-22T01:12:53;13.47;;;12.87;;
3050;SDS011;1535;51.098;6.414;2023-06-22T01:15:25;11.73;;;11.23;;
3050;SDS011;1535;51.098;6.414;2023-06-22T01:17:57;12.07;;;11.57;;
3050;SDS011;1535;51.098;6.414;2023-06-22T01:20:26;11.50;;;11.10;;
3050;SDS011;1535;51.098;6.414;2023-06-22T01:22:59;11.70;;;11.30;;
3050;SDS011;1535;51.098;6.414;2023-06-22T01:25:36;11.07;;;10.67;;
3050;SDS011;1535;51.098;6.414;2023-06-22T01:28:13;11.50;;;11.10;;
3050;SDS011;1535;51.098;6.414;2023-06-22T01:30:51;12.00;;;11.50;;
3050;SDS011;1535;51.098;6.414;2023-06-22T01:33:28;12.13;;;11.63;;
3050;SDS011;1535;51.098;6.414;2023-06-22T01:35:57;11.50;;;11.10;;
3050;SDS011;1535;51.098;6.414;2023-06-22T01:38:24;13.17;;;12.50;;
3050;SDS011;1535;51.098;6.414;2023-06-22T01:40:52;11.80;;;11.40;;
3050;SDS011;1535;51.098;6.414;2023-06-22T01:43:20;11.60;;;11.20;;
3050;SDS011;1535;51.098;6.414;2023-06-22T01:45:48;12.07;;;11.57;;
3050;SDS011;1535;51.098;6.414;2023-06-22T01:48:16;11.30;;;10.90;;
3050;SDS011;1535;51.098;6.414;2023-06-22T01:50:44;12.17;;;11.67;;
3050;SDS011;1535;51.098;6.414;2023-06-22T01:53:11;12.30;;;11.80;;
3050;SDS011;1535;51.098;6.414;2023-06-22T01:55:39;14.37;;;13.73;;
3050;SDS011;1535;51.098;6.414;2023-06-22T01:58:05;11.20;;;10.80;;
3050;SDS011;1535;51.098;6.414;2023-06-22T02:00:33;11.60;;;11.20;;
3050;SDS011;1535;51.098;6.414;2023-06-22T02:03:05;11.60;;;11.20;;
3050;SDS011;1535;51.098;6.414;2023-06-22T02:05:39;12.73;;;12.23;;
3050;SDS011;1535;51.098;6.414;2023-06-22T02:08:16;11.23;;;10.83;;
3050;SDS011;1535;51.098;6.414;2023-06-22T02:10:46;11.73;;;11.23;;
3050;SDS011;1535;51.098;6.414;2023-06-22T02:13:16;12.33;;;11.83;;
3050;SDS011;1535;51.098;6.414;2023-06-22T02:15:44;12.40;;;11.90;;
3050;SDS011;1535;51.098;6.414;2023-06-22T02:18:12;12.13;;;11.63;;
3050;SDS011;1535;51.098;6.414;2023-06-22T02:20:41;12.40;;;11.87;;
3050;SDS011;1535;51.098;6.414;2023-06-22T02:23:08;11.50;;;11.10;;
3050;SDS011;1535;51.098;6.414;2023-06-22T02:25:35;12.20;;;11.70;;
3050;SDS011;1535;51.098;6.414;2023-06-22T02:28:02;12.97;;;12.40;;
3050;SDS011;1535;51.098;6.414;2023-06-22T02:30:30;11.50;;;11.00;;
3050;SDS011;1535;51.098;6.414;2023-06-22T02:32:58;14.27;;;13.63;;
3050;SDS011;1535;51.098;6.414;2023-06-22T02:35:25;11.90;;;11.50;;
3050;SDS011;1535;51.098;6.414;2023-06-22T02:37:53;11.87;;;11.47;;
3050;SDS011;1535;51.098;6.414;2023-06-22T02:40:20;11.87;;;11.47;;
3050;SDS011;1535;51.098;6.414;2023-06-22T02:42:47;12.40;;;11.90;;
3050;SDS011;1535;51.098;6.414;2023-06-22T02:45:14;11.53;;;11.13;;
3050;SDS011;1535;51.098;6.414;2023-06-22T02:47:41;11.57;;;11.17;;
3050;SDS011;1535;51.098;6.414;2023-06-22T02:50:08;11.50;;;11.10;;
3050;SDS011;1535;51.098;6.414;2023-06-22T02:52:35;12.77;;;12.00;;
3050;SDS011;1535;51.098;6.414;2023-06-22T02:55:06;12.50;;;12.03;;
3050;SDS011;1535;51.098;6.414;2023-06-22T02:57:33;11.57;;;11.17;;
3050;SDS011;1535;51.098;6.414;2023-06-22T03:00:02;11.70;;;11.30;;
3050;SDS011;1535;51.098;6.414;2023-06-22T03:02:41;11.80;;;11.40;;
3050;SDS011;1535;51.098;6.414;2023-06-22T03:05:08;13.67;;;13.07;;
3050;SDS011;1535;51.098;6.414;2023-06-22T03:07:38;11.23;;;10.83;;
3050;SDS011;1535;51.098;6.414;2023-06-22T03:10:08;13.97;;;13.30;;
3050;SDS011;1535;51.098;6.414;2023-06-22T03:12:35;11.47;;;11.07;;
3050;SDS011;1535;51.098;6.414;2023-06-22T03:15:04;11.60;;;11.20;;
3050;SDS011;1535;51.098;6.414;2023-06-22T03:17:32;12.17;;;11.67;;
3050;SDS011;1535;51.098;6.414;2023-06-22T03:19:59;11.63;;;11.13;;
3050;SDS011;1535;51.098;6.414;2023-06-22T03:22:28;10.90;;;10.50;;
3050;SDS011;1535;51.098;6.414;2023-06-22T03:24:55;11.33;;;10.93;;
3050;SDS011;1535;51.098;6.414;2023-06-22T03:27:23;10.80;;;10.40;;
3050;SDS011;1535;51.098;6.414;2023-06-22T03:29:50;11.10;;;10.70;;
3050;SDS011;1535;51.098;6.414;2023-06-22T03:32:16;11.37;;;10.87;;
3050;SDS011;1535;51.098;6.414;2023-06-22T03:34:43;13.30;;;12.60;;
3050;SDS011;1535;51.098;6.414;2023-06-22T03:37:12;11.53;;;11.03;;
3050;SDS011;1535;51.098;6.414;2023-06-22T03:39:40;10.90;;;10.50;;
3050;SDS011;1535;51.098;6.414;2023-06-22T03:42:08;15.47;;;14.40;;
3050;SDS011;1535;51.098;6.414;2023-06-22T03:44:36;11.90;;;11.43;;
3050;SDS011;1535;51.098;6.414;2023-06-22T03:47:04;11.30;;;10.90;;
3050;SDS011;1535;51.098;6.414;2023-06-22T03:49:32;12.93;;;12.33;;
3050;SDS011;1535;51.098;6.414;2023-06-22T03:51:59;11.50;;;11.10;;
3050;SDS011;1535;51.098;6.414;2023-06-22T03:54:26;12.90;;;12.30;;
3050;SDS011;1535;51.098;6.414;2023-06-22T03:56:53;11.37;;;10.97;;
3050;SDS011;1535;51.098;6.414;2023-06-22T03:59:20;14.80;;;13.90;;
3050;SDS011;1535;51.098;6.414;2023-06-22T04:01:48;14.53;;;13.83;;
3050;SDS011;1535;51.098;6.414;2023-06-22T04:04:15;12.10;;;11.60;;
3050;SDS011;1535;51.098;6.414;2023-06-22T04:06:43;12.50;;;12.00;;
3050;SDS011;1535;51.098;6.414;2023-06-22T04:09:10;13.10;;;12.53;;
3050;SDS011;1535;51.098;6.414;2023-06-22T04:11:37;12.80;;;12.30;;
3050;SDS011;1535;51.098;6.414;2023-06-22T04:14:04;13.00;;;12.50;;
3050;SDS011;1535;51.098;6.414;2023-06-22T04:16:32;13.70;;;13.10;;
3050;SDS011;1535;51.098;6.414;2023-06-22T04:19:01;13.40;;;12.83;;
3050;SDS011;1535;51.098;6.414;2023-06-22T04:21:29;13.67;;;12.83;;
3050;SDS011;1535;51.098;6.414;2023-06-22T04:23:56;12.80;;;12.30;;
3050;SDS011;1535;51.098;6.414;2023-06-22T04:26:23;12.60;;;12.10;;
3050;SDS011;1535;51.098;6.414;2023-06-22T04:28:49;13.77;;;13.17;;
3050;SDS011;1535;51.098;6.414;2023-06-22T04:31:20;16.77;;;15.97;;
3050;SDS011;1535;51.098;6.414;2023-06-22T04:33:57;17.90;;;17.00;;
3050;SDS011;1535;51.098;6.414;2023-06-22T04:36:31;19.37;;;18.37;;
3050;SDS011;1535;51.098;6.414;2023-06-22T04:39:04;18.30;;;17.40;;
3050;SDS011;1535;51.098;6.414;2023-06-22T04:41:32;18.87;;;17.87;;
3050;SDS011;1535;51.098;6.414;2023-06-22T04:44:07;18.07;;;17.17;;
3050;SDS011;1535;51.098;6.414;2023-06-22T04:46:36;18.07;;;17.17;;
3050;SDS011;1535;51.098;6.414;2023-06-22T04:49:05;19.30;;;18.20;;
3050;SDS011;1535;51.098;6.414;2023-06-22T04:51:39;16.50;;;15.70;;
3050;SDS011;1535;51.098;6.414;2023-06-22T04:54:07;15.70;;;15.00;;
3050;SDS011;1535;51.098;6.414;2023-06-22T04:56:35;15.00;;;14.30;;
3050;SDS011;1535;51.098;6.414;2023-06-22T04:59:02;12.63;;;12.13;;
3050;SDS011;1535;51.098;6.414;2023-06-22T05:01:29;11.53;;;11.13;;
3050;SDS011;1535;51.098;6.414;2023-06-22T05:03:57;11.77;;;11.27;;
3050;SDS011;1535;51.098;6.414;2023-06-22T05:06:26;12.23;;;11.63;;
3050;SDS011;1535;51.098;6.414;2023-06-22T05:08:55;11.70;;;11.00;;
3050;SDS011;1535;51.098;6.414;2023-06-22T05:11:23;13.40;;;12.70;;
3050;SDS011;1535;51.098;6.414;2023-06-22T05:13:50;13.57;;;12.80;;
3050;SDS011;1535;51.098;6.414;2023-06-22T05:16:17;11.33;;;10.93;;
3050;SDS011;1535;51.098;6.414;2023-06-22T05:18:49;13.20;;;12.50;;
3050;SDS011;1535;51.098;6.414;2023-06-22T05:21:20;13.30;;;12.50;;
3050;SDS011;1535;51.098;6.414;2023-06-22T05:23:49;12.40;;;11.90;;
3050;SDS011;1535;51.098;6.414;2023-06-22T05:26:18;12.40;;;11.90;;
3050;SDS011;1535;51.098;6.414;2023-06-22T05:28:45;11.93;;;11.47;;
3050;SDS011;1535;51.098;6.414;2023-06-22T05:31:12;12.20;;;11.70;;
3050;SDS011;1535;51.098;6.414;2023-06-22T05:33:40;12.20;;;11.70;;
3050;SDS011;1535;51.098;6.414;2023-06-22T05:36:07;12.20;;;11.70;;
3050;SDS011;1535;51.098;6.414;2023-06-22T05:38:35;12.60;;;12.10;;
3050;SDS011;1535;51.098;6.414;2023-06-22T05:41:04;12.10;;;11.60;;
3050;SDS011;1535;51.098;6.414;2023-06-22T05:43:32;14.00;;;13.30;;
3050;SDS011;1535;51.098;6.414;2023-06-22T05:46:00;14.03;;;13.23;;
3050;SDS011;1535;51.098;6.414;2023-06-22T05:48:27;13.13;;;12.63;;
3050;SDS011;1535;51.098;6.414;2023-06-22T05:50:54;13.20;;;12.60;;
3050;SDS011;1535;51.098;6.414;2023-06-22T05:53:22;14.77;;;13.90;;
3050;SDS011;1535;51.098;6.414;2023-06-22T05:55:49;15.20;;;14.40;;
3050;SDS011;1535;51.098;6.414;2023-06-22T05:58:17;13.00;;;12.50;;
3050;SDS011;1535;51.098;6.414;2023-06-22T06:00:45;14.07;;;13.37;;
3050;SDS011;1535;51.098;6.414;2023-06-22T06:03:13;14.30;;;13.27;;
3050;SDS011;1535;51.098;6.414;2023-06-22T06:05:42;13.83;;;13.23;;
3050;SDS011;1535;51.098;6.414;2023-06-22T06:08:09;22.30;;;15.33;;
3050;SDS011;1535;51.098;6.414;2023-06-22T06:10:37;14.07;;;13.47;;
3050;SDS011;1535;51.098;6.414;2023-06-22T06:13:04;15.63;;;14.73;;
3050;SDS011;1535;51.098;6.414;2023-06-22T06:15:31;13.80;;;13.20;;
3050;SDS011;1535;51.098;6.414;2023-06-22T06:17:59;13.53;;;12.97;;
3050;SDS011;1535;51.098;6.414;2023-06-22T06:20:27;13.93;;;13.33;;
3050;SDS011;1535;51.098;6.414;2023-06-22T06:22:54;13.50;;;13.00;;
3050;SDS011;1535;51.098;6.414;2023-06-22T06:25:22;13.50;;;13.00;;
3050;SDS011;1535;51.098;6.414;2023-06-22T06:27:50;15.37;;;14.53;;
3050;SDS011;1535;51.098;6.414;2023-06-22T06:30:19;13.90;;;13.30;;
3050;SDS011;1535;51.098;6.414;2023-06-22T06:32:47;13.00;;;12.50;;
3050;SDS011;1535;51.098;6.414;2023-06-22T06:35:17;16.10;;;15.03;;
3050;SDS011;1535;51.098;6.414;2023-06-22T06:37:44;17.47;;;16.33;;
3050;SDS011;1535;51.098;6.414;2023-06-22T06:40:15;20.87;;;19.53;;
3050;SDS011;1535;51.098;6.414;2023-06-22T06:42:43;22.93;;;21.30;;
3050;SDS011;1535;51.098;6.414;2023-06-22T06:45:12;24.67;;;22.97;;
3050;SDS011;1535;51.098;6.414;2023-06-22T06:47:41;21.30;;;20.10;;
3050;SDS011;1535;51.098;6.414;2023-06-22T06:50:08;20.23;;;19.00;;
3050;SDS011;1535;51.098;6.414;2023-06-22T06:52:36;19.83;;;18.60;;
3050;SDS011;1535;51.098;6.414;2023-06-22T06:55:04;15.03;;;14.33;;
3050;SDS011;1535;51.098;6.414;2023-06-22T06:57:34;14.10;;;13.50;;
3050;SDS011;1535;51.098;6.414;2023-06-22T07:00:02;12.77;;;12.20;;
3050;SDS011;1535;51.098;6.414;2023-06-22T07:02:34;12.97;;;12.40;;
3050;SDS011;1535;51.098;6.414;2023-06-22T07:05:01;15.47;;;14.67;;
3050;SDS011;1535;51.098;6.414;2023-06-22T07:07:29;13.93;;;12.93;;
3050;SDS011;1535;51.098;6.414;2023-06-22T07:09:58;13.63;;;12.90;;
3050;SDS011;1535;51.098;6.414;2023-06-22T07:12:25;13.83;;;13.13;;
3050;SDS011;1535;51.098;6.414;2023-06-22T07:14:53;12.40;;;11.90;;
3050;SDS011;1535;51.098;6.414;2023-06-22T07:17:19;14.03;;;13.23;;
3050;SDS011;1535;51.098;6.414;2023-06-22T07:19:47;14.27;;;13.40;;
3050;SDS011;1535;51.098;6.414;2023-06-22T07:22:14;14.57;;;13.87;;
3050;SDS011;1535;51.098;6.414;2023-06-22T07:24:40;16.10;;;15.10;;
3050;SDS011;1535;51.098;6.414;2023-06-22T07:27:08;17.53;;;15.70;;
3050;SDS011;1535;51.098;6.414;2023-06-22T07:29:37;14.67;;;13.97;;
3050;SDS011;1535;51.098;6.414;2023-06-22T07:32:06;14.70;;;14.00;;
3050;SDS011;1535;51.098;6.414;2023-06-22T07:34:34;15.90;;;15.00;;
3050;SDS011;1535;51.098;6.414;2023-06-22T07:37:01;16.37;;;15.40;;
3050;SDS011;1535;51.098;6.414;2023-06-22T07:39:29;14.00;;;13.40;;
3050;SDS011;1535;51.098;6.414;2023-06-22T07:41:56;16.17;;;15.23;;
3050;SDS011;1535;51.098;6.414;2023-06-22T07:44:24;16.03;;;14.97;;
3050;SDS011;1535;51.098;6.414;2023-06-22T07:46:51;16.17;;;15.30;;
3050;SDS011;1535;51.098;6.414;2023-06-22T07:49:19;13.63;;;13.03;;
3050;SDS011;1535;51.098;6.414;2023-06-22T07:51:46;17.40;;;16.30;;
3050;SDS011;1535;51.098;6.414;2023-06-22T07:54:12;15.47;;;14.73;;
3050;SDS011;1535;51.098;6.414;2023-06-22T07:56:41;16.50;;;15.07;;
3050;SDS011;1535;51.098;6.414;2023-06-22T07:59:08;18.50;;;17.33;;
3050;SDS011;1535;51.098;6.414;2023-06-22T08:01:36;17.23;;;16.27;;
3050;SDS011;1535;51.098;6.414;2023-06-22T08:04:03;15.20;;;14.50;;
3050;SDS011;1535;51.098;6.414;2023-06-22T08:06:32;20.77;;;18.10;;
3050;SDS011;1535;51.098;6.414;2023-06-22T08:08:59;16.73;;;15.90;;
3050;SDS011;1535;51.098;6.414;2023-06-22T08:11:26;16.50;;;15.70;;
3050;SDS011;1535;51.098;6.414;2023-06-22T08:13:53;16.00;;;15.30;;
3050;SDS011;1535;51.098;6.414;2023-06-22T08:16:23;19.53;;;18.33;;
3050;SDS011;1535;51.098;6.414;2023-06-22T08:18:51;15.40;;;14.70;;
3050;SDS011;1535;51.098;6.414;2023-06-22T08:21:18;16.83;;;16.00;;
3050;SDS011;1535;51.098;6.414;2023-06-22T08:23:45;16.70;;;15.90;;
3050;SDS011;1535;51.098;6.414;2023-06-22T08:26:12;15.73;;;15.03;;
3050;SDS011;1535;51.098;6.414;2023-06-22T08:28:38;16.20;;;15.40;;
3050;SDS011;1535;51.098;6.414;2023-06-22T08:31:06;17.23;;;16.37;;
3050;SDS011;1535;51.098;6.414;2023-06-22T08:33:33;16.80;;;16.00;;
3050;SDS011;1535;51.098;6.414;2023-06-22T08:36:01;16.40;;;15.60;;
3050;SDS011;1535;51.098;6.414;2023-06-22T08:38:28;17.47;;;16.57;;
3050;SDS011;1535;51.098;6.414;2023-06-22T08:40:55;17.00;;;16.17;;
3050;SDS011;1535;51.098;6.414;2023-06-22T08:43:21;18.90;;;17.80;;
3050;SDS011;1535;51.098;6.414;2023-06-22T08:45:48;18.93;;;17.63;;
3050;SDS011;1535;51.098;6.414;2023-06-22T08:48:15;18.97;;;17.80;;
3050;SDS011;1535;51.098;6.414;2023-06-22T08:50:42;20.10;;;18.77;;
3050;SDS011;1535;51.098;6.414;2023-06-22T08:53:10;17.23;;;16.43;;
3050;SDS011;1535;51.098;6.414;2023-06-22T08:55:38;19.53;;;18.23;;
3050;SDS011;1535;51.098;6.414;2023-06-22T08:58:04;17.70;;;16.80;;
3050;SDS011;1535;51.098;6.414;2023-06-22T09:00:31;17.37;;;16.47;;
3050;SDS011;1535;51.098;6.414;2023-06-22T09:03:00;16.50;;;15.80;;
3050;SDS011;1535;51.098;6.414;2023-06-22T09:05:27;17.80;;;16.90;;
3050;SDS011;1535;51.098;6.414;2023-06-22T09:07:55;17.13;;;16.33;;
3050;SDS011;1535;51.098;6.414;2023-06-22T09:10:25;17.47;;;16.67;;
3050;SDS011;1535;51.098;6.414;2023-06-22T09:12:52;17.50;;;16.70;;
3050;SDS011;1535;51.098;6.414;2023-06-22T09:15:18;18.20;;;17.30;;
3050;SDS011;1535;51.098;6.414;2023-06-22T09:17:45;17.73;;;16.83;;
3050;SDS011;1535;51.098;6.414;2023-06-22T09:20:12;18.27;;;16.90;;
3050;SDS011;1535;51.098;6.414;2023-06-22T09:22:39;19.63;;;18.37;;
3050;SDS011;1535;51.098;6.414;2023-06-22T09:25:06;18.60;;;17.70;;
3050;SDS011;1535;51.098;6.414;2023-06-22T09:27:35;18.63;;;17.63;;
3050;SDS011;1535;51.098;6.414;2023-06-22T09:30:02;18.33;;;17.43;;
3050;SDS011;1535;51.098;6.414;2023-06-22T09:32:30;19.17;;;18.17;;
3050;SDS011;1535;51.098;6.414;2023-06-22T09:34:58;17.10;;;16.40;;
3050;SDS011;1535;51.098;6.414;2023-06-22T09:37:24;18.77;;;17.80;;
3050;SDS011;1535;51.098;6.414;2023-06-22T09:39:51;17.37;;;16.60;;
3050;SDS011;1535;51.098;6.414;2023-06-22T09:42:18;16.80;;;16.10;;
3050;SDS011;1535;51.098;6.414;2023-06-22T09:44:47;19.10;;;17.90;;
3050;SDS011;1535;51.098;6.414;2023-06-22T09:47:14;17.87;;;17.07;;
3050;SDS011;1535;51.098;6.414;2023-06-22T09:49:41;17.10;;;16.30;;
3050;SDS011;1535;51.098;6.414;2023-06-22T09:52:08;18.10;;;17.30;;
3050;SDS011;1535;51.098;6.414;2023-06-22T09:54:36;17.80;;;17.00;;
3050;SDS011;1535;51.098;6.414;2023-06-22T09:57:04;16.87;;;16.17;;
3050;SDS011;1535;51.098;6.414;2023-06-22T09:59:31;18.83;;;17.83;;
3050;SDS011;1535;51.098;6.414;2023-06-22T10:01:59;17.10;;;16.33;;
3050;SDS011;1535;51.098;6.414;2023-06-22T10:04:27;16.70;;;16.00;;
3050;SDS011;1535;51.098;6.414;2023-06-22T10:06:54;17.23;;;16.43;;
3050;SDS011;1535;51.098;6.414;2023-06-22T10:09:22;17.23;;;16.47;;
3050;SDS011;1535;51.098;6.414;2023-06-22T10:11:49;17.10;;;16.10;;
3050;SDS011;1535;51.098;6.414;2023-06-22T10:14:16;16.50;;;15.80;;
3050;SDS011;1535;51.098;6.414;2023-06-22T10:16:43;16.03;;;15.33;;
3050;SDS011;1535;51.098;6.414;2023-06-22T10:19:11;15.57;;;14.93;;
3050;SDS011;1535;51.098;6.414;2023-06-22T10:21:37;15.50;;;14.87;;
3050;SDS011;1535;51.098;6.414;2023-06-22T10:24:04;15.03;;;14.43;;
3050;SDS011;1535;51.098;6.414;2023-06-22T10:26:32;14.80;;;14.20;;
3050;SDS011;1535;51.098;6.414;2023-06-22T10:28:59;15.40;;;14.80;;
3050;SDS011;1535;51.098;6.414;2023-06-22T10:31:26;16.10;;;15.40;;
3050;SDS011;1535;51.098;6.414;2023-06-22T10:33:53;19.77;;;18.77;;
3050;SDS011;1535;51.098;6.414;2023-06-22T10:36:22;25.13;;;23.43;;
3050;SDS011;1535;51.098;6.414;2023-06-22T10:38:49;28.50;;;26.30;;
3050;SDS011;1535;51.098;6.414;2023-06-22T10:41:16;31.00;;;28.40;;
3050;SDS011;1535;51.098;6.414;2023-06-22T10:43:42;30.07;;;27.57;;
3050;SDS011;1535;51.098;6.414;2023-06-22T10:46:09;30.67;;;28.07;;
3050;SDS011;1535;51.098;6.414;2023-06-22T10:48:36;31.17;;;28.47;;
3050;SDS011;1535;51.098;6.414;2023-06-22T10:51:03;30.70;;;27.80;;
3050;SDS011;1535;51.098;6.414;2023-06-22T10:53:32;29.30;;;26.60;;
3050;SDS011;1535;51.098;6.414;2023-06-22T10:55:58;28.30;;;25.70;;
3050;SDS011;1535;51.098;6.414;2023-06-22T10:58:26;28.23;;;25.73;;
3050;SDS011;1535;51.098;6.414;2023-06-22T11:00:53;28.20;;;25.70;;
3050;SDS011;1535;51.098;6.414;2023-06-22T11:03:20;27.53;;;25.13;;
3050;SDS011;1535;51.098;6.414;2023-06-22T11:05:47;25.47;;;23.27;;
3050;SDS011;1535;51.098;6.414;2023-06-22T11:08:14;24.93;;;22.93;;
3050;SDS011;1535;51.098;6.414;2023-06-22T11:10:43;22.90;;;21.20;;
3050;SDS011;1535;51.098;6.414;2023-06-22T11:13:10;22.50;;;20.90;;
3050;SDS011;1535;51.098;6.414;2023-06-22T11:15:37;22.63;;;21.10;;
3050;SDS011;1535;51.098;6.414;2023-06-22T11:18:04;22.80;;;20.63;;
3050;SDS011;1535;51.098;6.414;2023-06-22T11:20:32;21.03;;;19.73;;
3050;SDS011;1535;51.098;6.414;2023-06-22T11:23:03;19.73;;;18.53;;
3050;SDS011;1535;51.098;6.414;2023-06-22T11:25:32;18.90;;;17.80;;
3050;SDS011;1535;51.098;6.414;2023-06-22T11:28:02;18.03;;;17.03;;
3050;SDS011;1535;51.098;6.414;2023-06-22T11:30:29;20.33;;;18.90;;
3050;SDS011;1535;51.098;6.414;2023-06-22T11:32:57;18.53;;;17.40;;
3050;SDS011;1535;51.098;6.414;2023-06-22T11:35:25;17.87;;;16.97;;
3050;SDS011;1535;51.098;6.414;2023-06-22T11:37:52;18.40;;;17.30;;
3050;SDS011;1535;51.098;6.414;2023-06-22T11:40:19;16.50;;;15.60;;
3050;SDS011;1535;51.098;6.414;2023-06-22T11:42:47;16.07;;;15.27;;
3050;SDS011;1535;51.098;6.414;2023-06-22T11:45:16;16.43;;;15.13;;
3050;SDS011;1535;51.098;6.414;2023-06-22T11:47:43;16.80;;;15.90;;
3050;SDS011;1535;51.098;6.414;2023-06-22T11:50:10;16.90;;;15.70;;
3050;SDS011;1535;51.098;6.414;2023-06-22T11:52:37;13.27;;;12.57;;
3050;SDS011;1535;51.098;6.414;2023-06-22T11:55:04;11.93;;;11.23;;
3050;SDS011;1535;51.098;6.414;2023-06-22T11:57:33;12.57;;;11.93;;
3050;SDS011;1535;51.098;6.414;2023-06-22T12:00:02;13.60;;;13.00;;
3050;SDS011;1535;51.098;6.414;2023-06-22T12:02:39;14.47;;;13.77;;
3050;SDS011;1535;51.098;6.414;2023-06-22T12:05:07;19.57;;;18.10;;
3050;SDS011;1535;51.098;6.414;2023-06-22T12:07:34;22.73;;;21.10;;
3050;SDS011;1535;51.098;6.414;2023-06-22T12:10:01;20.00;;;18.67;;
3050;SDS011;1535;51.098;6.414;2023-06-22T12:12:28;18.57;;;17.47;;
3050;SDS011;1535;51.098;6.414;2023-06-22T12:14:55;22.40;;;20.90;;
3050;SDS011;1535;51.098;6.414;2023-06-22T12:17:22;18.90;;;17.70;;
3050;SDS011;1535;51.098;6.414;2023-06-22T12:19:50;19.07;;;17.93;;
3050;SDS011;1535;51.098;6.414;2023-06-22T12:22:17;19.27;;;18.07;;
3050;SDS011;1535;51.098;6.414;2023-06-22T12:24:44;17.97;;;16.97;;
3050;SDS011;1535;51.098;6.414;2023-06-22T12:27:11;17.83;;;16.83;;
3050;SDS011;1535;51.098;6.414;2023-06-22T12:29:41;21.27;;;19.70;;
3050;SDS011;1535;51.098;6.414;2023-06-22T12:32:08;17.43;;;16.33;;
3050;SDS011;1535;51.098;6.414;2023-06-22T12:34:37;16.37;;;15.47;;
3050;SDS011;1535;51.098;6.414;2023-06-22T12:37:06;14.43;;;13.63;;
3050;SDS011;1535;51.098;6.414;2023-06-22T12:39:33;14.80;;;13.77;;
3050;SDS011;1535;51.098;6.414;2023-06-22T12:42:00;12.30;;;11.80;;
3050;SDS011;1535;51.098;6.414;2023-06-22T12:44:27;17.60;;;13.83;;
3050;SDS011;1535;51.098;6.414;2023-06-22T12:46:54;15.77;;;14.97;;
3050;SDS011;1535;51.098;6.414;2023-06-22T12:49:21;12.50;;;12.00;;
3050;SDS011;1535;51.098;6.414;2023-06-22T12:51:48;14.50;;;13.70;;
3050;SDS011;1535;51.098;6.414;2023-06-22T12:54:16;13.10;;;12.50;;
3050;SDS011;1535;51.098;6.414;2023-06-22T12:56:43;17.53;;;16.50;;
3050;SDS011;1535;51.098;6.414;2023-06-22T12:59:10;17.60;;;16.17;;
3050;SDS011;1535;51.098;6.414;2023-06-22T13:01:37;16.67;;;15.63;;
3050;SDS011;1535;51.098;6.414;2023-06-22T13:04:04;15.47;;;14.67;;
3050;SDS011;1535;51.098;6.414;2023-06-22T13:06:31;17.23;;;16.23;;
3050;SDS011;1535;51.098;6.414;2023-06-22T13:08:59;16.13;;;15.33;;
3050;SDS011;1535;51.098;6.414;2023-06-22T13:11:27;16.80;;;15.90;;
3050;SDS011;1535;51.098;6.414;2023-06-22T13:13:54;18.50;;;17.40;;
3050;SDS011;1535;51.098;6.414;2023-06-22T13:16:20;17.97;;;16.53;;
3050;SDS011;1535;51.098;6.414;2023-06-22T13:18:48;17.03;;;16.10;;
3050;SDS011;1535;51.098;6.414;2023-06-22T13:21:15;15.37;;;14.67;;
3050;SDS011;1535;51.098;6.414;2023-06-22T13:23:42;17.87;;;16.77;;
3050;SDS011;1535;51.098;6.414;2023-06-22T13:26:10;18.20;;;17.20;;
3050;SDS011;1535;51.098;6.414;2023-06-22T13:28:38;15.70;;;14.90;;
3050;SDS011;1535;51.098;6.414;2023-06-22T13:31:05;18.00;;;16.73;;
3050;SDS011;1535;51.098;6.414;2023-06-22T13:33:31;17.17;;;15.77;;
3050;SDS011;1535;51.098;6.414;2023-06-22T13:35:58;21.33;;;19.50;;
3050;SDS011;1535;51.098;6.414;2023-06-22T13:38:25;18.40;;;17.00;;
3050;SDS011;1535;51.098;6.414;2023-06-22T13:40:52;18.50;;;17.00;;
3050;SDS011;1535;51.098;6.414;2023-06-22T13:43:21;16.03;;;15.03;;
3050;SDS011;1535;51.098;6.414;2023-06-22T13:45:49;14.23;;;13.33;;
3050;SDS011;1535;51.098;6.414;2023-06-22T13:48:16;15.37;;;14.50;;
3050;SDS011;1535;51.098;6.414;2023-06-22T13:50:44;15.40;;;14.13;;
3050;SDS011;1535;51.098;6.414;2023-06-22T13:53:11;20.33;;;18.73;;
3050;SDS011;1535;51.098;6.414;2023-06-22T13:55:37;18.43;;;17.13;;
3050;SDS011;1535;51.098;6.414;2023-06-22T13:58:04;13.53;;;12.83;;
3050;SDS011;1535;51.098;6.414;2023-06-22T14:00:31;14.33;;;13.57;;
3050;SDS011;1535;51.098;6.414;2023-06-22T14:03:00;17.60;;;16.23;;
3050;SDS011;1535;51.098;6.414;2023-06-22T14:05:30;17.80;;;15.13;;
3050;SDS011;1535;51.098;6.414;2023-06-22T14:07:57;19.10;;;17.80;;
3050;SDS011;1535;51.098;6.414;2023-06-22T14:10:24;15.23;;;14.20;;
3050;SDS011;1535;51.098;6.414;2023-06-22T14:12:50;13.43;;;12.73;;
3050;SDS011;1535;51.098;6.414;2023-06-22T14:15:18;19.80;;;17.90;;
3050;SDS011;1535;51.098;6.414;2023-06-22T14:17:45;18.87;;;17.37;;
3050;SDS011;1535;51.098;6.414;2023-06-22T14:20:13;18.40;;;16.90;;
3050;SDS011;1535;51.098;6.414;2023-06-22T14:22:40;15.00;;;13.90;;
3050;SDS011;1535;51.098;6.414;2023-06-22T14:25:07;12.50;;;11.80;;
3050;SDS011;1535;51.098;6.414;2023-06-22T14:27:34;16.30;;;11.70;;
3050;SDS011;1535;51.098;6.414;2023-06-22T14:30:01;17.87;;;14.53;;
3050;SDS011;1535;51.098;6.414;2023-06-22T14:32:28;16.23;;;14.87;;
3050;SDS011;1535;51.098;6.414;2023-06-22T14:34:55;17.37;;;15.97;;
3050;SDS011;1535;51.098;6.414;2023-06-22T14:37:24;12.73;;;12.03;;
3050;SDS011;1535;51.098;6.414;2023-06-22T14:39:50;11.03;;;10.53;;
3050;SDS011;1535;51.098;6.414;2023-06-22T14:42:17;13.40;;;12.67;;
3050;SDS011;1535;51.098;6.414;2023-06-22T14:44:58;16.10;;;14.47;;
3050;SDS011;1535;51.098;6.414;2023-06-22T14:47:24;13.87;;;12.97;;
3050;SDS011;1535;51.098;6.414;2023-06-22T14:49:51;15.43;;;14.37;;
3050;SDS011;1535;51.098;6.414;2023-06-22T14:52:18;23.83;;;15.10;;